KJOT/JOT METAR and TAF weather

Enter ICAO airport designator
Station Type Date Time Source
KJOT METAR 2019/06/20 06:55 UTC NOAA

KJOT 200655Z AUTO 36008KT 10SM DZ SCT012 BKN018 OVC033 14/14 A2960 RMK AO2 P0008 T01410141


Station Type Date Time Source
KJOT Decoded METAR 2019/06/20 06:55 UTC NOAA

Joliet, Joliet Regional Airport, IL, United States (KJOT) 41-31-05N 088-10-31W
Jun 20, 2019 - 02:55 AM EDT / 2019.06.20 0655 UTC
Wind: from the N (360 degrees) at 9 MPH (8 KT):0
Visibility: 10 mile(s):0
Sky conditions: overcast
Weather: drizzle
Precipitation last hour: 0.08 inches
Temperature: 57.4 F (14.1 C)
Dew Point: 57.4 F (14.1 C)
Relative Humidity: 100%
Pressure (altimeter): 29.6 in. Hg (1002 hPa)
ob: KJOT 200655Z AUTO 36008KT 10SM DZ SCT012 BKN018 OVC033 14/14 A2960 RMK AO2 P0008 T01410141
cycle: 7

Station Type Date Time Source
KJOT TAF UTC NOAA

Error!

Example: see airport list